sensor_id;sensor_type;location;lat;lon;timestamp;pressure;altitude;pressure_sealevel;temperature;humidity
54600;BME280;40500;51.084;16.958;2023-01-30T00:01:03;100369.48;;;-1.66;100.00
54600;BME280;40500;51.084;16.958;2023-01-30T00:03:57;100362.30;;;-1.70;100.00
54600;BME280;40500;51.084;16.958;2023-01-30T00:06:53;100361.52;;;-1.73;100.00
54600;BME280;40500;51.084;16.958;2023-01-30T00:09:46;100348.92;;;-1.75;100.00
54600;BME280;40500;51.084;16.958;2023-01-30T00:12:38;100339.91;;;-1.77;100.00
54600;BME280;40500;51.084;16.958;2023-01-30T00:15:13;100332.59;;;-1.81;100.00
54600;BME280;40500;51.084;16.958;2023-01-30T00:17:51;100331.92;;;-1.81;100.00
54600;BME280;40500;51.084;16.958;2023-01-30T00:20:55;100330.48;;;-1.82;100.00
54600;BME280;40500;51.084;16.958;2023-01-30T00:23:53;100329.68;;;-1.86;100.00
54600;BME280;40500;51.084;16.958;2023-01-30T00:26:45;100320.66;;;-1.88;100.00
54600;BME280;40500;51.084;16.958;2023-01-30T00:29:18;100316.80;;;-1.91;100.00
54600;BME280;40500;51.084;16.958;2023-01-30T00:31:51;100305.23;;;-1.94;100.00
54600;BME280;40500;51.084;16.958;2023-01-30T00:34:42;100301.89;;;-1.95;100.00
54600;BME280;40500;51.084;16.958;2023-01-30T00:37:33;100296.83;;;-1.98;100.00
54600;BME280;40500;51.084;16.958;2023-01-30T00:40:07;100297.80;;;-2.01;100.00
54600;BME280;40500;51.084;16.958;2023-01-30T00:43:01;100284.55;;;-2.02;100.00
54600;BME280;40500;51.084;16.958;2023-01-30T00:45:51;100270.77;;;-2.03;100.00
54600;BME280;40500;51.084;16.958;2023-01-30T00:48:41;100266.08;;;-2.05;100.00
54600;BME280;40500;51.084;16.958;2023-01-30T00:51:34;100262.96;;;-2.06;100.00
54600;BME280;40500;51.084;16.958;2023-01-30T00:54:04;100254.16;;;-2.08;100.00
54600;BME280;40500;51.084;16.958;2023-01-30T00:56:37;100247.20;;;-2.10;100.00
54600;BME280;40500;51.084;16.958;2023-01-30T00:59:08;100241.96;;;-2.13;100.00
54600;BME280;40500;51.084;16.958;2023-01-30T01:01:40;100241.91;;;-2.15;100.00
54600;BME280;40500;51.084;16.958;2023-01-30T01:04:34;100242.98;;;-2.19;100.00
54600;BME280;40500;51.084;16.958;2023-01-30T01:07:13;100235.86;;;-2.22;100.00
54600;BME280;40500;51.084;16.958;2023-01-30T01:09:48;100225.46;;;-2.25;100.00
54600;BME280;40500;51.084;16.958;2023-01-30T01:12:24;100218.70;;;-2.27;100.00
54600;BME280;40500;51.084;16.958;2023-01-30T01:15:01;100216.41;;;-2.29;100.00
54600;BME280;40500;51.084;16.958;2023-01-30T01:17:32;100216.25;;;-2.29;100.00
54600;BME280;40500;51.084;16.958;2023-01-30T01:20:05;100214.14;;;-2.30;100.00
54600;BME280;40500;51.084;16.958;2023-01-30T01:22:38;100209.38;;;-2.29;100.00
54600;BME280;40500;51.084;16.958;2023-01-30T01:25:33;100211.75;;;-2.30;100.00
54600;BME280;40500;51.084;16.958;2023-01-30T01:28:28;100205.90;;;-2.30;100.00
54600;BME280;40500;51.084;16.958;2023-01-30T01:30:59;100200.22;;;-2.31;100.00
54600;BME280;40500;51.084;16.958;2023-01-30T01:33:37;100191.52;;;-2.30;100.00
54600;BME280;40500;51.084;16.958;2023-01-30T01:36:33;100185.05;;;-2.28;100.00
54600;BME280;40500;51.084;16.958;2023-01-30T01:39:41;100176.61;;;-2.24;100.00
54600;BME280;40500;51.084;16.958;2023-01-30T01:42:36;100182.04;;;-2.20;100.00
54600;BME280;40500;51.084;16.958;2023-01-30T01:45:19;100179.77;;;-2.16;100.00
54600;BME280;40500;51.084;16.958;2023-01-30T01:48:03;100173.86;;;-2.13;100.00
54600;BME280;40500;51.084;16.958;2023-01-30T01:50:43;100168.99;;;-2.10;100.00
54600;BME280;40500;51.084;16.958;2023-01-30T01:53:41;100158.44;;;-2.08;100.00
54600;BME280;40500;51.084;16.958;2023-01-30T01:56:40;100156.32;;;-2.04;100.00
54600;BME280;40500;51.084;16.958;2023-01-30T01:59:35;100144.60;;;-2.00;100.00
54600;BME280;40500;51.084;16.958;2023-01-30T02:02:09;100136.13;;;-1.96;100.00
54600;BME280;40500;51.084;16.958;2023-01-30T02:04:54;100138.79;;;-1.93;100.00
54600;BME280;40500;51.084;16.958;2023-01-30T02:07:41;100138.52;;;-1.90;100.00
54600;BME280;40500;51.084;16.958;2023-01-30T02:10:18;100131.91;;;-1.88;100.00
54600;BME280;40500;51.084;16.958;2023-01-30T02:12:50;100115.33;;;-1.86;100.00
54600;BME280;40500;51.084;16.958;2023-01-30T02:15:41;100114.54;;;-1.84;100.00
54600;BME280;40500;51.084;16.958;2023-01-30T02:18:15;100114.60;;;-1.82;100.00
54600;BME280;40500;51.084;16.958;2023-01-30T02:21:36;100100.52;;;-1.81;100.00
54600;BME280;40500;51.084;16.958;2023-01-30T02:34:18;100056.59;;;-1.75;100.00
54600;BME280;40500;51.084;16.958;2023-01-30T02:37:03;100047.89;;;-1.73;100.00
54600;BME280;40500;51.084;16.958;2023-01-30T02:39:47;100047.45;;;-1.70;100.00
54600;BME280;40500;51.084;16.958;2023-01-30T02:42:54;100036.33;;;-1.69;100.00
54600;BME280;40500;51.084;16.958;2023-01-30T02:45:35;100033.80;;;-1.67;100.00
54600;BME280;40500;51.084;16.958;2023-01-30T02:48:19;100030.06;;;-1.66;100.00
54600;BME280;40500;51.084;16.958;2023-01-30T02:51:17;100024.95;;;-1.64;100.00
54600;BME280;40500;51.084;16.958;2023-01-30T02:53:50;100020.17;;;-1.64;100.00
54600;BME280;40500;51.084;16.958;2023-01-30T02:56:24;100013.33;;;-1.63;100.00
54600;BME280;40500;51.084;16.958;2023-01-30T02:59:29;99995.33;;;-1.62;100.00
54600;BME280;40500;51.084;16.958;2023-01-30T03:02:37;99989.83;;;-1.62;100.00
54600;BME280;40500;51.084;16.958;2023-01-30T03:05:30;99986.92;;;-1.61;100.00
54600;BME280;40500;51.084;16.958;2023-01-30T03:08:22;99988.55;;;-1.58;100.00
54600;BME280;40500;51.084;16.958;2023-01-30T03:10:59;99978.14;;;-1.55;100.00
54600;BME280;40500;51.084;16.958;2023-01-30T03:14:01;99985.09;;;-1.53;100.00
54600;BME280;40500;51.084;16.958;2023-01-30T03:16:57;99982.54;;;-1.51;100.00
54600;BME280;40500;51.084;16.958;2023-01-30T03:19:30;99973.14;;;-1.51;100.00
54600;BME280;40500;51.084;16.958;2023-01-30T03:22:25;99971.08;;;-1.50;100.00
54600;BME280;40500;51.084;16.958;2023-01-30T03:25:20;99967.34;;;-1.49;100.00
54600;BME280;40500;51.084;16.958;2023-01-30T03:28:18;99956.55;;;-1.48;100.00
54600;BME280;40500;51.084;16.958;2023-01-30T03:30:52;99955.02;;;-1.47;100.00
54600;BME280;40500;51.084;16.958;2023-01-30T03:33:44;99943.04;;;-1.45;100.00
54600;BME280;40500;51.084;16.958;2023-01-30T03:36:15;99930.85;;;-1.45;100.00
54600;BME280;40500;51.084;16.958;2023-01-30T03:39:06;99932.65;;;-1.42;100.00
54600;BME280;40500;51.084;16.958;2023-01-30T03:41:41;99927.36;;;-1.40;100.00
54600;BME280;40500;51.084;16.958;2023-01-30T03:44:14;99934.45;;;-1.38;100.00
54600;BME280;40500;51.084;16.958;2023-01-30T03:46:56;99924.38;;;-1.36;100.00
54600;BME280;40500;51.084;16.958;2023-01-30T03:49:47;99904.67;;;-1.34;100.00
54600;BME280;40500;51.084;16.958;2023-01-30T03:52:41;99900.42;;;-1.33;100.00
54600;BME280;40500;51.084;16.958;2023-01-30T03:55:33;99905.40;;;-1.32;100.00
54600;BME280;40500;51.084;16.958;2023-01-30T03:58:25;99908.19;;;-1.31;100.00
54600;BME280;40500;51.084;16.958;2023-01-30T04:01:01;99907.14;;;-1.31;100.00
54600;BME280;40500;51.084;16.958;2023-01-30T04:03:55;99902.67;;;-1.31;100.00
54600;BME280;40500;51.084;16.958;2023-01-30T04:06:27;99901.15;;;-1.31;100.00
54600;BME280;40500;51.084;16.958;2023-01-30T04:09:18;99892.89;;;-1.31;100.00
54600;BME280;40500;51.084;16.958;2023-01-30T04:12:11;99881.22;;;-1.31;100.00
54600;BME280;40500;51.084;16.958;2023-01-30T04:15:03;99868.16;;;-1.31;100.00
54600;BME280;40500;51.084;16.958;2023-01-30T04:17:56;99853.73;;;-1.31;100.00
54600;BME280;40500;51.084;16.958;2023-01-30T04:20:47;99836.73;;;-1.31;100.00
54600;BME280;40500;51.084;16.958;2023-01-30T04:23:42;99819.54;;;-1.32;100.00
54600;BME280;40500;51.084;16.958;2023-01-30T04:26:14;99807.69;;;-1.32;100.00
54600;BME280;40500;51.084;16.958;2023-01-30T04:28:49;99805.79;;;-1.32;100.00
54600;BME280;40500;51.084;16.958;2023-01-30T04:31:24;99799.95;;;-1.32;100.00
54600;BME280;40500;51.084;16.958;2023-01-30T04:34:23;99789.34;;;-1.31;100.00
54600;BME280;40500;51.084;16.958;2023-01-30T04:37:17;99783.85;;;-1.31;100.00
54600;BME280;40500;51.084;16.958;2023-01-30T04:40:14;99778.52;;;-1.30;100.00
54600;BME280;40500;51.084;16.958;2023-01-30T04:43:05;99768.24;;;-1.29;100.00
54600;BME280;40500;51.084;16.958;2023-01-30T04:46:07;99769.86;;;-1.26;100.00
54600;BME280;40500;51.084;16.958;2023-01-30T04:48:42;99762.33;;;-1.24;100.00
54600;BME280;40500;51.084;16.958;2023-01-30T04:51:16;99755.50;;;-1.23;100.00
54600;BME280;40500;51.084;16.958;2023-01-30T04:53:49;99744.17;;;-1.22;100.00
54600;BME280;40500;51.084;16.958;2023-01-30T04:56:44;99733.92;;;-1.20;100.00
54600;BME280;40500;51.084;16.958;2023-01-30T04:59:18;99727.06;;;-1.20;100.00
54600;BME280;40500;51.084;16.958;2023-01-30T05:01:50;99718.16;;;-1.17;100.00
54600;BME280;40500;51.084;16.958;2023-01-30T05:04:24;99714.89;;;-1.18;100.00
54600;BME280;40500;51.084;16.958;2023-01-30T05:06:57;99714.90;;;-1.17;100.00
54600;BME280;40500;51.084;16.958;2023-01-30T05:09:30;99715.63;;;-1.15;100.00
54600;BME280;40500;51.084;16.958;2023-01-30T05:12:05;99721.50;;;-1.13;100.00
54600;BME280;40500;51.084;16.958;2023-01-30T05:14:57;99717.40;;;-1.12;100.00
54600;BME280;40500;51.084;16.958;2023-01-30T05:17:52;99718.95;;;-1.11;100.00
54600;BME280;40500;51.084;16.958;2023-01-30T05:20:23;99716.88;;;-1.12;100.00
54600;BME280;40500;51.084;16.958;2023-01-30T05:22:55;99712.40;;;-1.13;100.00
54600;BME280;40500;51.084;16.958;2023-01-30T05:25:26;99712.75;;;-1.13;100.00
54600;BME280;40500;51.084;16.958;2023-01-30T05:28:28;99701.08;;;-1.12;100.00
54600;BME280;40500;51.084;16.958;2023-01-30T05:31:19;99696.11;;;-1.12;100.00
54600;BME280;40500;51.084;16.958;2023-01-30T05:33:52;99690.72;;;-1.15;100.00
54600;BME280;40500;51.084;16.958;2023-01-30T05:36:45;99688.73;;;-1.20;100.00
54600;BME280;40500;51.084;16.958;2023-01-30T05:39:17;99687.59;;;-1.25;100.00
54600;BME280;40500;51.084;16.958;2023-01-30T05:41:51;99686.16;;;-1.28;100.00
54600;BME280;40500;51.084;16.958;2023-01-30T05:44:22;99672.27;;;-1.28;100.00
54600;BME280;40500;51.084;16.958;2023-01-30T05:46:56;99665.46;;;-1.24;100.00
54600;BME280;40500;51.084;16.958;2023-01-30T05:49:38;99665.73;;;-1.20;100.00
54600;BME280;40500;51.084;16.958;2023-01-30T05:52:33;99663.75;;;-1.15;100.00
54600;BME280;40500;51.084;16.958;2023-01-30T05:55:07;99657.12;;;-1.11;100.00
54600;BME280;40500;51.084;16.958;2023-01-30T05:57:39;99651.52;;;-1.07;100.00
54600;BME280;40500;51.084;16.958;2023-01-30T06:00:34;99645.93;;;-1.03;100.00
54600;BME280;40500;51.084;16.958;2023-01-30T06:03:28;99648.03;;;-1.00;100.00
54600;BME280;40500;51.084;16.958;2023-01-30T06:06:15;99643.27;;;-0.98;100.00
54600;BME280;40500;51.084;16.958;2023-01-30T06:08:47;99636.63;;;-0.95;100.00
54600;BME280;40500;51.084;16.958;2023-01-30T06:11:40;99633.04;;;-0.94;100.00
54600;BME280;40500;51.084;16.958;2023-01-30T06:14:12;99630.50;;;-0.92;100.00
54600;BME280;40500;51.084;16.958;2023-01-30T06:16:52;99630.17;;;-0.90;100.00
54600;BME280;40500;51.084;16.958;2023-01-30T06:19:24;99622.64;;;-0.89;100.00
54600;BME280;40500;51.084;16.958;2023-01-30T06:21:59;99618.89;;;-0.88;100.00
54600;BME280;40500;51.084;16.958;2023-01-30T06:24:31;99627.01;;;-0.85;100.00
54600;BME280;40500;51.084;16.958;2023-01-30T06:27:02;99630.31;;;-0.83;100.00
54600;BME280;40500;51.084;16.958;2023-01-30T06:29:36;99632.23;;;-0.81;100.00
54600;BME280;40500;51.084;16.958;2023-01-30T06:32:07;99636.59;;;-0.77;100.00
54600;BME280;40500;51.084;16.958;2023-01-30T06:34:38;99626.70;;;-0.73;100.00
54600;BME280;40500;51.084;16.958;2023-01-30T06:37:09;99610.92;;;-0.70;100.00
54600;BME280;40500;51.084;16.958;2023-01-30T06:39:40;99597.56;;;-0.68;100.00
54600;BME280;40500;51.084;16.958;2023-01-30T06:42:13;99591.23;;;-0.66;100.00
54600;BME280;40500;51.084;16.958;2023-01-30T06:44:43;99575.04;;;-0.68;100.00
54600;BME280;40500;51.084;16.958;2023-01-30T06:47:17;99579.23;;;-0.64;100.00
54600;BME280;40500;51.084;16.958;2023-01-30T06:49:47;99576.16;;;-0.62;100.00
54600;BME280;40500;51.084;16.958;2023-01-30T06:52:18;99587.19;;;-0.60;100.00
54600;BME280;40500;51.084;16.958;2023-01-30T06:54:50;99590.48;;;-0.59;100.00
54600;BME280;40500;51.084;16.958;2023-01-30T06:57:21;99586.73;;;-0.57;100.00
54600;BME280;40500;51.084;16.958;2023-01-30T06:59:53;99588.12;;;-0.56;100.00
54600;BME280;40500;51.084;16.958;2023-01-30T07:02:28;99584.17;;;-0.55;100.00
54600;BME280;40500;51.084;16.958;2023-01-30T07:05:07;99579.16;;;-0.56;100.00
54600;BME280;40500;51.084;16.958;2023-01-30T07:07:38;99575.05;;;-0.55;100.00
54600;BME280;40500;51.084;16.958;2023-01-30T07:10:12;99566.84;;;-0.53;100.00
54600;BME280;40500;51.084;16.958;2023-01-30T07:12:46;99570.98;;;-0.52;100.00
54600;BME280;40500;51.084;16.958;2023-01-30T07:15:18;99568.95;;;-0.50;100.00
54600;BME280;40500;51.084;16.958;2023-01-30T07:17:49;99569.16;;;-0.49;100.00
54600;BME280;40500;51.084;16.958;2023-01-30T07:20:20;99567.81;;;-0.46;100.00
54600;BME280;40500;51.084;16.958;2023-01-30T07:22:54;99574.90;;;-0.44;100.00
54600;BME280;40500;51.084;16.958;2023-01-30T07:25:27;99576.66;;;-0.41;100.00
54600;BME280;40500;51.084;16.958;2023-01-30T07:28:02;99570.15;;;-0.39;100.00
54600;BME280;40500;51.084;16.958;2023-01-30T07:30:34;99571.70;;;-0.38;100.00
54600;BME280;40500;51.084;16.958;2023-01-30T07:33:06;99564.66;;;-0.37;100.00
54600;BME280;40500;51.084;16.958;2023-01-30T07:35:37;99563.98;;;-0.37;100.00
54600;BME280;40500;51.084;16.958;2023-01-30T07:38:31;99559.83;;;-0.40;100.00
54600;BME280;40500;51.084;16.958;2023-01-30T07:41:01;99553.10;;;-0.41;100.00
54600;BME280;40500;51.084;16.958;2023-01-30T07:43:32;99549.11;;;-0.43;100.00
54600;BME280;40500;51.084;16.958;2023-01-30T07:46:04;99543.52;;;-0.49;100.00
54600;BME280;40500;51.084;16.958;2023-01-30T07:48:34;99543.45;;;-0.53;100.00
54600;BME280;40500;51.084;16.958;2023-01-30T07:51:09;99537.53;;;-0.58;100.00
54600;BME280;40500;51.084;16.958;2023-01-30T07:53:41;99534.05;;;-0.61;100.00
54600;BME280;40500;51.084;16.958;2023-01-30T07:56:37;99536.43;;;-0.63;100.00
54600;BME280;40500;51.084;16.958;2023-01-30T07:59:13;99532.81;;;-0.64;100.00
54600;BME280;40500;51.084;16.958;2023-01-30T08:02:09;99530.60;;;-0.61;100.00
54600;BME280;40500;51.084;16.958;2023-01-30T08:05:03;99528.55;;;-0.61;100.00
54600;BME280;40500;51.084;16.958;2023-01-30T08:07:48;99522.73;;;-0.59;100.00
54600;BME280;40500;51.084;16.958;2023-01-30T08:10:21;99518.30;;;-0.55;100.00
54600;BME280;40500;51.084;16.958;2023-01-30T08:12:53;99511.98;;;-0.54;100.00
54600;BME280;40500;51.084;16.958;2023-01-30T08:15:45;99511.34;;;-0.50;100.00
54600;BME280;40500;51.084;16.958;2023-01-30T08:18:16;99510.38;;;-0.45;100.00
54600;BME280;40500;51.084;16.958;2023-01-30T08:20:48;99508.73;;;-0.40;100.00
54600;BME280;40500;51.084;16.958;2023-01-30T08:23:19;99505.02;;;-0.34;100.00
54600;BME280;40500;51.084;16.958;2023-01-30T08:25:52;99502.67;;;-0.30;100.00
54600;BME280;40500;51.084;16.958;2023-01-30T08:28:26;99497.91;;;-0.25;100.00
54600;BME280;40500;51.084;16.958;2023-01-30T08:30:57;99486.29;;;-0.20;100.00
54600;BME280;40500;51.084;16.958;2023-01-30T08:33:28;99485.67;;;-0.14;100.00
54600;BME280;40500;51.084;16.958;2023-01-30T08:35:59;99481.81;;;-0.07;100.00
54600;BME280;40500;51.084;16.958;2023-01-30T08:38:29;99474.83;;;0.01;100.00
54600;BME280;40500;51.084;16.958;2023-01-30T08:41:02;99469.73;;;0.06;100.00
54600;BME280;40500;51.084;16.958;2023-01-30T08:43:34;99470.45;;;0.09;100.00
54600;BME280;40500;51.084;16.958;2023-01-30T08:46:25;99465.50;;;0.12;100.00
54600;BME280;40500;51.084;16.958;2023-01-30T08:48:55;99467.23;;;0.13;100.00
54600;BME280;40500;51.084;16.958;2023-01-30T08:51:47;99464.83;;;0.13;100.00
54600;BME280;40500;51.084;16.958;2023-01-30T08:54:18;99458.98;;;0.14;100.00
54600;BME280;40500;51.084;16.958;2023-01-30T08:57:13;99458.65;;;0.16;100.00
54600;BME280;40500;51.084;16.958;2023-01-30T08:59:49;99452.48;;;0.18;100.00
54600;BME280;40500;51.084;16.958;2023-01-30T09:02:42;99458.20;;;0.22;100.00
54600;BME280;40500;51.084;16.958;2023-01-30T09:05:17;99458.40;;;0.24;100.00
54600;BME280;40500;51.084;16.958;2023-01-30T09:08:09;99461.01;;;0.26;100.00
54600;BME280;40500;51.084;16.958;2023-01-30T09:11:06;99452.94;;;0.28;100.00
54600;BME280;40500;51.084;16.958;2023-01-30T09:13:38;99450.86;;;0.29;100.00
54600;BME280;40500;51.084;16.958;2023-01-30T09:16:12;99450.17;;;0.29;100.00
54600;BME280;40500;51.084;16.958;2023-01-30T09:19:10;99443.98;;;0.30;100.00
54600;BME280;40500;51.084;16.958;2023-01-30T09:22:11;99445.89;;;0.31;100.00
54600;BME280;40500;51.084;16.958;2023-01-30T09:25:13;99435.41;;;0.33;100.00
54600;BME280;40500;51.084;16.958;2023-01-30T09:28:05;99432.54;;;0.37;100.00
54600;BME280;40500;51.084;16.958;2023-01-30T09:30:59;99432.26;;;0.45;100.00
54600;BME280;40500;51.084;16.958;2023-01-30T09:33:50;99434.92;;;0.53;100.00
54600;BME280;40500;51.084;16.958;2023-01-30T09:36:41;99431.00;;;0.59;100.00
54600;BME280;40500;51.084;16.958;2023-01-30T09:39:14;99427.39;;;0.60;100.00
54600;BME280;40500;51.084;16.958;2023-01-30T09:41:58;99428.45;;;0.62;100.00
54600;BME280;40500;51.084;16.958;2023-01-30T09:44:54;99420.77;;;0.70;100.00
54600;BME280;40500;51.084;16.958;2023-01-30T09:47:38;99418.72;;;0.74;100.00
54600;BME280;40500;51.084;16.958;2023-01-30T09:50:29;99412.69;;;0.75;100.00
54600;BME280;40500;51.084;16.958;2023-01-30T09:53:13;99409.05;;;0.72;100.00
54600;BME280;40500;51.084;16.958;2023-01-30T09:55:49;99407.31;;;0.70;100.00
54600;BME280;40500;51.084;16.958;2023-01-30T09:58:49;99403.52;;;0.69;100.00
54600;BME280;40500;51.084;16.958;2023-01-30T10:01:29;99394.58;;;0.71;100.00
54600;BME280;40500;51.084;16.958;2023-01-30T10:04:12;99392.52;;;0.73;100.00
54600;BME280;40500;51.084;16.958;2023-01-30T10:06:53;99400.61;;;0.71;100.00
54600;BME280;40500;51.084;16.958;2023-01-30T10:09:40;99402.65;;;0.68;100.00
54600;BME280;40500;51.084;16.958;2023-01-30T10:12:24;99398.31;;;0.63;100.00
54600;BME280;40500;51.084;16.958;2023-01-30T10:15:34;99394.27;;;0.54;100.00
54600;BME280;40500;51.084;16.958;2023-01-30T10:21:26;99391.98;;;0.48;100.00
54600;BME280;40500;51.084;16.958;2023-01-30T10:24:21;99390.08;;;0.46;100.00
54600;BME280;40500;51.084;16.958;2023-01-30T10:27:00;99377.66;;;0.45;100.00
54600;BME280;40500;51.084;16.958;2023-01-30T10:29:37;99375.07;;;0.44;100.00
54600;BME280;40500;51.084;16.958;2023-01-30T10:32:13;99374.72;;;0.43;100.00
54600;BME280;40500;51.084;16.958;2023-01-30T10:34:48;99373.48;;;0.41;100.00
54600;BME280;40500;51.084;16.958;2023-01-30T10:37:25;99369.50;;;0.37;100.00
54600;BME280;40500;51.084;16.958;2023-01-30T10:40:04;99366.41;;;0.37;100.00
54600;BME280;40500;51.084;16.958;2023-01-30T10:42:45;99359.15;;;0.35;100.00
54600;BME280;40500;51.084;16.958;2023-01-30T10:45:19;99356.92;;;0.35;100.00
54600;BME280;40500;51.084;16.958;2023-01-30T10:47:59;99353.66;;;0.36;100.00
54600;BME280;40500;51.084;16.958;2023-01-30T10:50:46;99351.79;;;0.41;100.00
54600;BME280;40500;51.084;16.958;2023-01-30T10:53:24;99349.23;;;0.44;100.00
54600;BME280;40500;51.084;16.958;2023-01-30T10:56:14;99346.52;;;0.49;100.00
54600;BME280;40500;51.084;16.958;2023-01-30T10:58:59;99347.44;;;0.56;100.00
54600;BME280;40500;51.084;16.958;2023-01-30T11:01:39;99351.27;;;0.63;100.00
54600;BME280;40500;51.084;16.958;2023-01-30T11:04:41;99342.02;;;0.71;100.00
54600;BME280;40500;51.084;16.958;2023-01-30T11:07:14;99341.89;;;0.78;100.00
54600;BME280;40500;51.084;16.958;2023-01-30T11:09:48;99336.45;;;0.89;100.00
54600;BME280;40500;51.084;16.958;2023-01-30T11:12:20;99321.32;;;0.95;100.00
54600;BME280;40500;51.084;16.958;2023-01-30T11:14:56;99319.63;;;1.02;100.00
54600;BME280;40500;51.084;16.958;2023-01-30T11:17:33;99310.35;;;1.08;100.00
54600;BME280;40500;51.084;16.958;2023-01-30T11:20:14;99315.38;;;1.12;100.00
54600;BME280;40500;51.084;16.958;2023-01-30T11:22:50;99318.16;;;1.16;100.00
54600;BME280;40500;51.084;16.958;2023-01-30T11:25:25;99306.78;;;1.20;100.00
54600;BME280;40500;51.084;16.958;2023-01-30T11:28:02;99294.56;;;1.25;100.00
54600;BME280;40500;51.084;16.958;2023-01-30T11:30:36;99291.48;;;1.34;100.00
54600;BME280;40500;51.084;16.958;2023-01-30T11:33:22;99291.19;;;1.44;100.00
54600;BME280;40500;51.084;16.958;2023-01-30T11:35:59;99282.91;;;1.51;100.00
54600;BME280;40500;51.084;16.958;2023-01-30T11:38:36;99272.58;;;1.54;100.00
54600;BME280;40500;51.084;16.958;2023-01-30T11:41:22;99270.51;;;1.60;100.00
54600;BME280;40500;51.084;16.958;2023-01-30T11:44:03;99269.32;;;1.66;100.00
54600;BME280;40500;51.084;16.958;2023-01-30T11:46:38;99256.20;;;1.69;100.00
54600;BME280;40500;51.084;16.958;2023-01-30T11:49:39;99262.42;;;1.74;100.00
54600;BME280;40500;51.084;16.958;2023-01-30T11:52:38;99255.34;;;1.74;100.00
54600;BME280;40500;51.084;16.958;2023-01-30T11:55:38;99248.80;;;1.72;100.00
54600;BME280;40500;51.084;16.958;2023-01-30T11:58:37;99247.41;;;1.72;100.00
54600;BME280;40500;51.084;16.958;2023-01-30T12:01:10;99243.96;;;1.70;100.00
54600;BME280;40500;51.084;16.958;2023-01-30T12:03:49;99237.23;;;1.70;100.00
54600;BME280;40500;51.084;16.958;2023-01-30T12:06:34;99237.41;;;1.71;100.00
54600;BME280;40500;51.084;16.958;2023-01-30T12:12:09;99231.20;;;1.81;100.00
54600;BME280;40500;51.084;16.958;2023-01-30T12:15:24;99237.07;;;2.05;100.00
54600;BME280;40500;51.084;16.958;2023-01-30T12:18:07;99232.05;;;2.23;100.00
54600;BME280;40500;51.084;16.958;2023-01-30T12:20:51;99232.90;;;2.35;100.00
54600;BME280;40500;51.084;16.958;2023-01-30T12:23:29;99235.98;;;2.49;100.00
54600;BME280;40500;51.084;16.958;2023-01-30T12:26:09;99228.36;;;2.59;100.00
54600;BME280;40500;51.084;16.958;2023-01-30T12:28:47;99224.70;;;2.66;100.00
54600;BME280;40500;51.084;16.958;2023-01-30T12:31:32;99218.46;;;2.70;100.00
54600;BME280;40500;51.084;16.958;2023-01-30T12:34:09;99217.08;;;2.73;100.00
54600;BME280;40500;51.084;16.958;2023-01-30T12:36:43;99214.30;;;2.78;100.00
54600;BME280;40500;51.084;16.958;2023-01-30T12:39:28;99214.11;;;2.82;100.00
54600;BME280;40500;51.084;16.958;2023-01-30T12:42:30;99209.41;;;2.90;100.00
54600;BME280;40500;51.084;16.958;2023-01-30T12:45:24;99216.83;;;2.98;100.00
54600;BME280;40500;51.084;16.958;2023-01-30T12:48:16;99214.90;;;3.01;100.00
54600;BME280;40500;51.084;16.958;2023-01-30T12:51:00;99218.34;;;3.04;100.00
54600;BME280;40500;51.084;16.958;2023-01-30T12:53:48;99215.02;;;3.11;100.00
54600;BME280;40500;51.084;16.958;2023-01-30T12:56:36;99217.24;;;3.18;100.00
54600;BME280;40500;51.084;16.958;2023-01-30T12:59:15;99221.20;;;3.23;100.00
54600;BME280;40500;51.084;16.958;2023-01-30T13:02:01;99218.23;;;3.28;100.00
54600;BME280;40500;51.084;16.958;2023-01-30T13:04:45;99223.41;;;3.31;100.00
54600;BME280;40500;51.084;16.958;2023-01-30T13:07:40;99224.42;;;3.31;100.00
54600;BME280;40500;51.084;16.958;2023-01-30T13:10:19;99222.54;;;3.30;100.00
54600;BME280;40500;51.084;16.958;2023-01-30T13:13:00;99227.21;;;3.29;100.00
54600;BME280;40500;51.084;16.958;2023-01-30T13:15:39;99232.08;;;3.27;100.00
54600;BME280;40500;51.084;16.958;2023-01-30T13:18:17;99230.34;;;3.28;100.00
54600;BME280;40500;51.084;16.958;2023-01-30T13:20:57;99230.33;;;3.29;100.00
54600;BME280;40500;51.084;16.958;2023-01-30T13:23:40;99228.95;;;3.29;100.00
54600;BME280;40500;51.084;16.958;2023-01-30T13:26:20;99227.39;;;3.30;100.00
54600;BME280;40500;51.084;16.958;2023-01-30T13:29:00;99232.41;;;3.29;100.00
54600;BME280;40500;51.084;16.958;2023-01-30T13:31:36;99232.05;;;3.30;100.00
54600;BME280;40500;51.084;16.958;2023-01-30T13:34:30;99231.71;;;3.30;100.00
54600;BME280;40500;51.084;16.958;2023-01-30T13:37:21;99234.46;;;3.33;100.00
54600;BME280;40500;51.084;16.958;2023-01-30T13:40:03;99236.96;;;3.49;100.00
54600;BME280;40500;51.084;16.958;2023-01-30T13:42:47;99239.13;;;3.87;100.00
54600;BME280;40500;51.084;16.958;2023-01-30T13:45:23;99231.73;;;4.58;100.00
54600;BME280;40500;51.084;16.958;2023-01-30T13:48:06;99221.04;;;5.76;100.00
54600;BME280;40500;51.084;16.958;2023-01-30T13:50:44;99222.96;;;5.86;100.00
54600;BME280;40500;51.084;16.958;2023-01-30T13:53:44;99222.56;;;6.42;100.00
54600;BME280;40500;51.084;16.958;2023-01-30T13:56:23;99226.98;;;7.44;100.00
54600;BME280;40500;51.084;16.958;2023-01-30T13:59:56;99222.52;;;7.32;100.00
54600;BME280;40500;51.084;16.958;2023-01-30T14:06:12;99219.53;;;6.65;100.00
54600;BME280;40500;51.084;16.958;2023-01-30T14:08:54;99213.86;;;7.61;100.00
54600;BME280;40500;51.084;16.958;2023-01-30T14:11:45;99209.16;;;8.33;100.00
54600;BME280;40500;51.084;16.958;2023-01-30T14:14:29;99206.16;;;8.81;100.00
54600;BME280;40500;51.084;16.958;2023-01-30T14:17:24;99207.67;;;9.54;100.00
54600;BME280;40500;51.084;16.958;2023-01-30T14:20:15;99208.60;;;9.70;100.00
54600;BME280;40500;51.084;16.958;2023-01-30T14:22:53;99208.09;;;8.67;100.00